createdAt,value
2023-05-01T00:01:19.236Z,10.50
2023-05-01T00:03:47.128Z,10.50
2023-05-01T00:06:15.063Z,10.40
2023-05-01T00:08:42.857Z,10.30
2023-05-01T00:11:12.611Z,10.30
2023-05-01T00:13:40.302Z,10.20
2023-05-01T00:16:12.137Z,10.10
2023-05-01T00:18:39.937Z,10.00
2023-05-01T00:21:07.624Z,10.00
2023-05-01T00:23:35.481Z,10.00
2023-05-01T00:26:03.277Z,10.00
2023-05-01T00:28:30.913Z,10.00
2023-05-01T00:30:58.661Z,9.90
2023-05-01T00:33:26.230Z,9.90
2023-05-01T00:35:54.019Z,9.60
2023-05-01T00:38:21.847Z,9.60
2023-05-01T00:40:49.528Z,9.60
2023-05-01T00:43:17.211Z,9.70
2023-05-01T00:45:46.608Z,9.80
2023-05-01T00:48:16.091Z,9.50
2023-05-01T00:50:45.888Z,9.50
2023-05-01T00:53:13.638Z,9.50
2023-05-01T00:55:43.068Z,9.40
2023-05-01T00:58:12.381Z,9.20
2023-05-01T01:00:40.176Z,9.20
2023-05-01T01:03:08.036Z,9.10
2023-05-01T01:05:45.095Z,9.10
2023-05-01T01:08:34.477Z,8.90
2023-05-01T01:11:27.025Z,9.00
2023-05-01T01:14:07.279Z,9.00
2023-05-01T01:16:46.138Z,8.90
2023-05-01T01:19:44.448Z,8.80
2023-05-01T01:22:17.071Z,8.70
2023-05-01T01:25:00.688Z,8.70
2023-05-01T01:27:44.449Z,8.80
2023-05-01T01:30:35.129Z,8.70
2023-05-01T01:33:09.448Z,8.70
2023-05-01T01:35:40.095Z,8.70
2023-05-01T01:38:15.297Z,8.70
2023-05-01T01:40:57.412Z,8.60
2023-05-01T01:43:27.187Z,8.50
2023-05-01T01:46:03.957Z,8.50
2023-05-01T01:48:36.493Z,8.50
2023-05-01T01:51:10.577Z,8.50
2023-05-01T01:53:39.855Z,8.50
2023-05-01T01:56:08.929Z,8.50
2023-05-01T01:58:40.253Z,8.60
2023-05-01T02:01:08.676Z,8.60
2023-05-01T02:03:56.137Z,8.60
2023-05-01T02:06:25.431Z,8.50
2023-05-01T02:08:54.273Z,8.50
2023-05-01T02:11:22.979Z,8.40
2023-05-01T02:13:52.731Z,8.50
2023-05-01T02:16:25.620Z,8.60
2023-05-01T02:18:54.314Z,8.50
2023-05-01T02:21:23.571Z,8.50
2023-05-01T02:23:51.407Z,8.30
2023-05-01T02:26:23.130Z,8.30
2023-05-01T02:28:51.213Z,8.20
2023-05-01T02:31:18.909Z,8.20
2023-05-01T02:33:47.200Z,8.30
2023-05-01T02:36:15.039Z,8.40
2023-05-01T02:38:43.106Z,8.20
2023-05-01T02:41:12.021Z,7.90
2023-05-01T02:43:44.061Z,8.10
2023-05-01T02:46:13.602Z,8.10
2023-05-01T02:48:43.030Z,8.10
2023-05-01T02:51:12.211Z,8.10
2023-05-01T02:53:40.693Z,8.10
2023-05-01T02:56:18.533Z,8.00
2023-05-01T02:58:46.217Z,8.00
2023-05-01T03:01:13.991Z,8.10
2023-05-01T03:03:41.836Z,8.10
2023-05-01T03:06:09.609Z,8.10
2023-05-01T03:08:38.049Z,8.20
2023-05-01T03:11:08.902Z,8.10
2023-05-01T03:13:37.179Z,8.00
2023-05-01T03:16:05.168Z,7.90
2023-05-01T03:18:32.827Z,7.60
2023-05-01T03:21:00.557Z,7.60
2023-05-01T03:23:28.888Z,7.70
2023-05-01T03:25:57.587Z,7.80
2023-05-01T03:28:25.318Z,7.90
2023-05-01T03:30:53.915Z,7.80
2023-05-01T03:33:22.918Z,7.80
2023-05-01T03:36:03.518Z,7.90
2023-05-01T03:38:33.395Z,8.00
2023-05-01T03:41:10.159Z,8.10
2023-05-01T03:43:43.776Z,8.00
2023-05-01T03:46:29.481Z,8.10
2023-05-01T03:48:59.894Z,8.20
2023-05-01T03:51:29.851Z,8.40
2023-05-01T03:53:58.902Z,8.50
2023-05-01T03:56:35.700Z,8.50
2023-05-01T03:59:04.378Z,8.40
2023-05-01T04:01:33.773Z,8.50
2023-05-01T04:04:02.403Z,8.70
2023-05-01T04:06:30.261Z,8.70
2023-05-01T04:08:58.236Z,8.80
2023-05-01T04:11:25.868Z,9.00
2023-05-01T04:13:53.518Z,9.00
2023-05-01T04:16:21.258Z,9.10
2023-05-01T04:18:49.337Z,9.00
2023-05-01T04:21:18.853Z,9.10
2023-05-01T04:23:50.387Z,9.30
2023-05-01T04:26:18.476Z,9.60
2023-05-01T04:28:46.176Z,9.90
2023-05-01T04:31:16.101Z,10.00
2023-05-01T04:33:43.728Z,9.90
2023-05-01T04:36:11.679Z,9.90
2023-05-01T04:38:39.482Z,10.00
2023-05-01T04:41:07.835Z,10.10
2023-05-01T04:43:35.637Z,10.20
2023-05-01T04:46:04.846Z,10.40
2023-05-01T04:48:33.653Z,10.50
2023-05-01T04:51:01.332Z,10.70
2023-05-01T04:53:32.428Z,10.90
2023-05-01T04:56:00.700Z,10.90
2023-05-01T04:58:28.486Z,11.10
2023-05-01T05:01:00.939Z,11.20
2023-05-01T05:03:28.821Z,11.50
2023-05-01T05:05:56.776Z,11.70
2023-05-01T05:08:24.762Z,11.90
2023-05-01T05:11:00.813Z,12.10
2023-05-01T05:13:36.537Z,12.50
2023-05-01T05:16:11.324Z,12.70
2023-05-01T05:18:39.516Z,12.50
2023-05-01T05:21:09.064Z,12.40
2023-05-01T05:23:37.204Z,12.80
2023-05-01T05:26:05.685Z,12.70
2023-05-01T05:28:33.224Z,13.10
2023-05-01T05:31:00.785Z,13.30
2023-05-01T05:33:29.259Z,13.30
2023-05-01T05:35:59.601Z,13.40
2023-05-01T05:38:33.152Z,13.40
2023-05-01T05:41:02.068Z,13.60
2023-05-01T05:43:32.819Z,13.70
2023-05-01T05:46:01.139Z,13.40
2023-05-01T05:48:30.326Z,13.70
2023-05-01T05:50:58.130Z,13.50
2023-05-01T05:53:26.366Z,13.50
2023-05-01T05:55:55.297Z,13.50
2023-05-01T05:58:24.744Z,13.50
2023-05-01T06:00:56.140Z,13.50
2023-05-01T06:03:24.579Z,13.70
2023-05-01T06:05:55.782Z,14.10
2023-05-01T06:08:23.724Z,13.90
2023-05-01T06:10:51.572Z,14.00
2023-05-01T06:13:19.543Z,14.40
2023-05-01T06:15:49.958Z,13.60
2023-05-01T06:18:17.868Z,13.60
2023-05-01T06:20:47.625Z,13.50
2023-05-01T06:23:15.791Z,13.70
2023-05-01T06:25:54.830Z,13.80
2023-05-01T06:28:22.878Z,14.00
2023-05-01T06:30:50.569Z,14.00
2023-05-01T06:33:25.303Z,14.00
2023-05-01T06:36:04.226Z,14.50
2023-05-01T06:38:33.101Z,15.10
2023-05-01T06:41:01.304Z,14.30
2023-05-01T06:43:31.040Z,14.00
2023-05-01T06:45:58.976Z,14.40
2023-05-01T06:48:26.723Z,14.10
2023-05-01T06:50:55.553Z,14.40
2023-05-01T06:53:23.695Z,14.30
2023-05-01T06:55:51.399Z,13.80
2023-05-01T06:58:24.166Z,14.10
2023-05-01T07:00:53.620Z,14.10
2023-05-01T07:03:21.846Z,14.40
2023-05-01T07:05:49.575Z,14.40
2023-05-01T07:08:17.251Z,14.90
2023-05-01T07:10:45.249Z,15.30
2023-05-01T07:13:13.227Z,14.90
2023-05-01T07:15:40.926Z,14.10
2023-05-01T07:18:08.797Z,14.80
2023-05-01T07:20:36.674Z,14.60
2023-05-01T07:23:07.301Z,14.60
2023-05-01T07:25:37.864Z,14.50
2023-05-01T07:28:05.742Z,15.00
2023-05-01T07:30:33.669Z,14.90
2023-05-01T07:33:01.863Z,15.30
2023-05-01T07:35:30.078Z,15.40
2023-05-01T07:37:57.754Z,14.90
2023-05-01T07:40:25.478Z,14.60
2023-05-01T07:42:54.562Z,14.60
2023-05-01T07:45:22.510Z,15.20
2023-05-01T07:47:50.285Z,14.90
2023-05-01T07:50:18.573Z,15.40
2023-05-01T07:52:46.721Z,15.60
2023-05-01T07:55:14.549Z,15.80
2023-05-01T07:57:42.136Z,15.30
2023-05-01T08:00:10.609Z,15.90
2023-05-01T08:02:41.708Z,15.40
2023-05-01T08:05:10.115Z,15.20
2023-05-01T08:07:37.650Z,15.10
2023-05-01T08:10:05.881Z,15.60
2023-05-01T08:12:33.565Z,16.10
2023-05-01T08:15:01.172Z,15.80
2023-05-01T08:17:28.883Z,15.90
2023-05-01T08:19:57.950Z,15.80
2023-05-01T08:22:25.869Z,16.20
2023-05-01T08:24:53.593Z,16.30
2023-05-01T08:27:21.647Z,16.60
2023-05-01T08:29:49.749Z,16.70
2023-05-01T08:32:18.319Z,16.50
2023-05-01T08:34:46.646Z,16.90
2023-05-01T08:37:14.766Z,17.00
2023-05-01T08:39:42.417Z,16.60
2023-05-01T08:42:10.367Z,16.40
2023-05-01T08:44:42.153Z,16.50
2023-05-01T08:47:16.475Z,16.20
2023-05-01T08:49:45.481Z,16.20
2023-05-01T08:52:14.791Z,17.00
2023-05-01T08:54:47.510Z,16.90
2023-05-01T08:57:17.541Z,16.90
2023-05-01T08:59:46.711Z,16.80
2023-05-01T09:02:16.145Z,16.60
2023-05-01T09:04:44.396Z,16.80
2023-05-01T09:07:13.031Z,16.40
2023-05-01T09:09:40.773Z,16.60
2023-05-01T09:12:23.514Z,16.80
2023-05-01T09:14:56.118Z,17.70
2023-05-01T09:17:24.492Z,17.90
2023-05-01T09:19:52.843Z,17.70
2023-05-01T09:22:21.644Z,17.70
2023-05-01T09:24:49.687Z,17.30
2023-05-01T09:27:17.486Z,17.40
2023-05-01T09:29:46.541Z,18.00
2023-05-01T09:32:14.306Z,17.70
2023-05-01T09:34:43.888Z,17.10
2023-05-01T09:37:15.169Z,17.30
2023-05-01T09:39:42.788Z,17.30
2023-05-01T09:42:11.070Z,16.50
2023-05-01T09:44:43.350Z,17.10
2023-05-01T09:47:12.114Z,17.30
2023-05-01T09:49:48.221Z,17.90
2023-05-01T09:52:17.073Z,17.80
2023-05-01T09:54:44.843Z,17.60
2023-05-01T09:57:12.810Z,18.10
2023-05-01T09:59:40.728Z,18.10
2023-05-01T10:02:17.541Z,18.30
2023-05-01T10:04:45.723Z,18.50
2023-05-01T10:07:14.578Z,19.10
2023-05-01T10:09:42.507Z,19.00
2023-05-01T10:12:10.566Z,18.10
2023-05-01T10:14:55.081Z,17.90
2023-05-01T10:17:23.418Z,18.00
2023-05-01T10:19:51.770Z,18.40
2023-05-01T10:22:19.459Z,18.30
2023-05-01T10:24:47.710Z,18.30
2023-05-01T10:27:17.225Z,18.70
2023-05-01T10:29:48.175Z,18.50
2023-05-01T10:32:16.347Z,18.50
2023-05-01T10:34:57.532Z,18.60
2023-05-01T10:37:50.493Z,18.90
2023-05-01T10:40:39.979Z,18.70
2023-05-01T10:43:28.898Z,19.10
2023-05-01T10:46:08.986Z,19.00
2023-05-01T10:48:39.872Z,18.40
2023-05-01T10:51:12.409Z,18.90
2023-05-01T10:53:41.941Z,18.80
2023-05-01T10:56:25.591Z,18.90
2023-05-01T10:58:53.570Z,19.30
2023-05-01T11:01:34.178Z,19.50
2023-05-01T11:04:11.938Z,19.40
2023-05-01T11:07:03.517Z,18.90
2023-05-01T11:09:47.469Z,18.80
2023-05-01T11:12:36.037Z,19.50
2023-05-01T11:15:05.809Z,19.50
2023-05-01T11:17:44.103Z,19.50
2023-05-01T11:20:37.948Z,19.50
2023-05-01T11:23:05.723Z,19.50
2023-05-01T11:25:34.099Z,19.60
2023-05-01T11:28:03.909Z,19.50
2023-05-01T11:30:41.299Z,19.60
2023-05-01T11:33:10.917Z,19.20
2023-05-01T11:35:39.276Z,19.60
2023-05-01T11:38:16.498Z,19.60
2023-05-01T11:40:44.526Z,19.90
2023-05-01T11:43:13.193Z,19.80
2023-05-01T11:45:40.863Z,19.50
2023-05-01T11:48:18.786Z,19.20
2023-05-01T11:50:46.678Z,19.40
2023-05-01T11:53:18.925Z,19.70
2023-05-01T11:55:47.346Z,19.30
2023-05-01T11:58:15.329Z,19.40
2023-05-01T12:00:43.898Z,19.20
2023-05-01T12:03:15.748Z,19.60
2023-05-01T12:05:45.378Z,20.00
2023-05-01T12:08:16.131Z,19.60
2023-05-01T12:10:44.674Z,19.10
2023-05-01T12:13:14.186Z,19.30
2023-05-01T12:15:45.266Z,19.50
2023-05-01T12:18:15.369Z,19.70
2023-05-01T12:20:48.760Z,19.60
2023-05-01T12:23:17.201Z,19.70
2023-05-01T12:25:46.038Z,19.60
2023-05-01T12:28:15.221Z,19.90
2023-05-01T12:30:45.363Z,20.00
2023-05-01T12:33:21.519Z,19.70
2023-05-01T12:35:50.735Z,20.00
2023-05-01T12:38:20.844Z,20.10
2023-05-01T12:40:55.983Z,19.90
2023-05-01T12:43:38.378Z,20.20
2023-05-01T12:46:08.127Z,20.00
2023-05-01T12:48:39.455Z,19.90
2023-05-01T12:51:07.888Z,20.30
2023-05-01T12:53:44.179Z,20.60
2023-05-01T12:56:24.730Z,19.90
2023-05-01T12:58:54.006Z,20.10
2023-05-01T13:01:26.703Z,19.60
2023-05-01T13:03:58.184Z,19.80
2023-05-01T13:06:36.031Z,19.60
2023-05-01T13:09:13.108Z,20.00
2023-05-01T13:11:41.073Z,19.60
2023-05-01T13:14:09.788Z,19.60
2023-05-01T13:16:47.054Z,20.00
2023-05-01T13:19:25.226Z,20.40
2023-05-01T13:21:53.037Z,20.40
2023-05-01T13:24:20.932Z,20.30
2023-05-01T13:26:56.271Z,20.30
2023-05-01T13:29:25.278Z,20.20
2023-05-01T13:31:53.622Z,20.10
2023-05-01T13:34:29.659Z,20.20
2023-05-01T13:36:58.025Z,20.80
2023-05-01T13:39:25.910Z,21.40
2023-05-01T13:41:53.944Z,20.20
2023-05-01T13:44:22.673Z,20.00
2023-05-01T13:46:50.921Z,19.90
2023-05-01T13:49:22.497Z,19.90
2023-05-01T13:51:51.067Z,20.10
2023-05-01T13:54:19.608Z,20.60
2023-05-01T13:56:47.333Z,20.50
2023-05-01T13:59:15.230Z,20.80
2023-05-01T14:01:46.664Z,20.60
2023-05-01T14:04:17.330Z,20.90
2023-05-01T14:06:47.721Z,20.40
2023-05-01T14:09:19.189Z,20.40
2023-05-01T14:11:48.479Z,20.20
2023-05-01T14:14:17.814Z,20.40
2023-05-01T14:16:50.599Z,20.30
2023-05-01T14:19:18.925Z,20.40
2023-05-01T14:21:47.199Z,20.30
2023-05-01T14:24:18.270Z,20.30
2023-05-01T14:26:49.222Z,20.40
2023-05-01T14:29:24.119Z,20.00
2023-05-01T14:31:52.839Z,20.20
2023-05-01T14:34:21.697Z,20.10
2023-05-01T14:36:49.297Z,20.40
2023-05-01T14:39:17.404Z,20.40
2023-05-01T14:41:45.592Z,20.00
2023-05-01T14:44:16.539Z,20.10
2023-05-01T14:46:47.327Z,19.90
2023-05-01T14:49:25.706Z,19.90
2023-05-01T14:51:54.130Z,20.30
2023-05-01T14:54:21.841Z,20.10
2023-05-01T14:56:49.965Z,19.80
2023-05-01T14:59:17.751Z,19.60
2023-05-01T15:01:45.501Z,19.50
2023-05-01T15:04:13.412Z,19.80
2023-05-01T15:06:41.579Z,19.70
2023-05-01T15:09:09.913Z,19.60
2023-05-01T15:11:37.554Z,19.60
2023-05-01T15:14:06.124Z,19.60
2023-05-01T15:16:33.844Z,19.60
2023-05-01T15:19:01.844Z,19.60
2023-05-01T15:21:29.486Z,19.60
2023-05-01T15:23:57.141Z,19.50
2023-05-01T15:26:25.129Z,19.50
2023-05-01T15:28:52.921Z,19.50
2023-05-01T15:31:20.733Z,19.50
2023-05-01T15:33:48.546Z,19.40
2023-05-01T15:36:16.854Z,19.40
2023-05-01T15:38:44.440Z,19.60
2023-05-01T15:41:12.254Z,19.40
2023-05-01T15:43:40.020Z,19.50
2023-05-01T15:46:07.714Z,19.30
2023-05-01T15:48:35.783Z,19.30
2023-05-01T15:51:04.736Z,19.50
2023-05-01T15:53:32.493Z,19.50
2023-05-01T15:56:00.219Z,19.40
2023-05-01T15:58:27.943Z,19.30
2023-05-01T16:00:55.780Z,19.40
2023-05-01T16:03:24.530Z,19.30
2023-05-01T16:05:52.855Z,19.40
2023-05-01T16:08:21.217Z,19.50
2023-05-01T16:10:50.291Z,19.30
2023-05-01T16:13:18.315Z,19.20
2023-05-01T16:15:45.975Z,19.20
2023-05-01T16:18:21.065Z,19.00
2023-05-01T16:20:49.010Z,18.90
2023-05-01T16:23:16.692Z,18.80
2023-05-01T16:25:44.851Z,18.70
2023-05-01T16:28:12.964Z,18.80
2023-05-01T16:30:44.636Z,18.90
2023-05-01T16:33:20.382Z,18.70
2023-05-01T16:35:49.754Z,18.70
2023-05-01T16:38:18.352Z,18.50
2023-05-01T16:40:48.230Z,18.40
2023-05-01T16:43:15.956Z,18.40
2023-05-01T16:45:43.786Z,18.40
2023-05-01T16:48:11.707Z,18.30
2023-05-01T16:50:41.623Z,18.40
2023-05-01T16:53:09.284Z,18.30
2023-05-01T16:55:37.158Z,18.10
2023-05-01T16:58:04.719Z,18.10
2023-05-01T17:00:32.763Z,18.00
2023-05-01T17:03:00.651Z,18.00
2023-05-01T17:05:28.383Z,18.00
2023-05-01T17:07:56.153Z,17.90
2023-05-01T17:10:23.955Z,17.70
2023-05-01T17:12:51.619Z,17.70
2023-05-01T17:15:19.587Z,17.50
2023-05-01T17:17:47.573Z,17.50
2023-05-01T17:20:15.378Z,17.40
2023-05-01T17:22:45.160Z,17.30
2023-05-01T17:25:13.370Z,17.20
2023-05-01T17:27:41.482Z,17.10
2023-05-01T17:30:09.302Z,17.00
2023-05-01T17:32:37.851Z,17.00
2023-05-01T17:35:06.699Z,16.70
2023-05-01T17:37:34.485Z,16.60
2023-05-01T17:40:02.656Z,16.50
2023-05-01T17:42:30.630Z,16.30
2023-05-01T17:45:00.073Z,16.20
2023-05-01T17:47:28.472Z,16.10
2023-05-01T17:49:56.624Z,15.80
2023-05-01T17:52:24.387Z,15.70
2023-05-01T17:54:52.310Z,15.40
2023-05-01T17:57:20.146Z,15.50
2023-05-01T17:59:48.755Z,15.40
2023-05-01T18:02:16.756Z,15.20
2023-05-01T18:04:44.523Z,15.10
2023-05-01T18:07:12.945Z,15.10
2023-05-01T18:09:41.061Z,15.00
2023-05-01T18:12:12.976Z,15.00
2023-05-01T18:14:44.559Z,14.80
2023-05-01T18:17:12.507Z,14.60
2023-05-01T18:19:40.390Z,14.60
2023-05-01T18:22:08.911Z,14.30
2023-05-01T18:24:39.150Z,14.30
2023-05-01T18:27:06.948Z,14.10
2023-05-01T18:29:35.158Z,14.10
2023-05-01T18:32:05.164Z,14.10
2023-05-01T18:34:34.158Z,14.00
2023-05-01T18:37:03.882Z,13.90
2023-05-01T18:39:32.041Z,13.80
2023-05-01T18:42:01.110Z,13.60
2023-05-01T18:44:29.890Z,13.50
2023-05-01T18:46:59.232Z,13.40
2023-05-01T18:49:29.245Z,13.60
2023-05-01T18:52:01.908Z,13.40
2023-05-01T18:54:30.676Z,13.30
2023-05-01T18:56:59.474Z,13.30
2023-05-01T18:59:31.929Z,13.30
2023-05-01T19:02:00.922Z,13.10
2023-05-01T19:04:30.752Z,13.00
2023-05-01T19:07:02.960Z,13.10
2023-05-01T19:09:31.238Z,13.10
2023-05-01T19:12:00.366Z,13.00
2023-05-01T19:14:28.873Z,12.80
2023-05-01T19:16:56.586Z,12.80
2023-05-01T19:19:24.510Z,12.90
2023-05-01T19:21:53.391Z,12.90
2023-05-01T19:24:22.397Z,12.80
2023-05-01T19:26:50.871Z,12.70
2023-05-01T19:29:22.945Z,12.70
2023-05-01T19:31:52.320Z,12.50
2023-05-01T19:34:25.017Z,12.40
2023-05-01T19:36:57.631Z,12.50
2023-05-01T19:39:26.396Z,12.50
2023-05-01T19:41:55.328Z,12.40
2023-05-01T19:44:24.587Z,12.30
2023-05-01T19:46:53.341Z,12.30
2023-05-01T19:49:22.179Z,12.20
2023-05-01T19:51:51.098Z,12.30
2023-05-01T19:54:19.590Z,12.10
2023-05-01T19:56:50.374Z,12.00
2023-05-01T19:59:21.913Z,12.20
2023-05-01T20:01:51.769Z,12.00
2023-05-01T20:04:20.073Z,12.00
2023-05-01T20:06:49.153Z,12.00
2023-05-01T20:09:17.366Z,11.80
2023-05-01T20:11:46.322Z,12.00
2023-05-01T20:14:15.588Z,11.80
2023-05-01T20:16:44.608Z,11.80
2023-05-01T20:21:55.410Z,11.70
2023-05-01T20:24:23.653Z,11.70
2023-05-01T20:26:54.591Z,11.70
2023-05-01T20:29:22.501Z,11.70
2023-05-01T20:31:52.685Z,11.70
2023-05-01T20:34:21.373Z,11.60
2023-05-01T20:36:49.511Z,11.40
2023-05-01T20:39:17.121Z,11.50
2023-05-01T20:41:45.542Z,11.50
2023-05-01T20:44:13.800Z,11.50
2023-05-01T20:46:44.711Z,11.40
2023-05-01T20:49:15.713Z,11.30
2023-05-01T20:51:43.714Z,11.30
2023-05-01T20:54:11.736Z,11.20
2023-05-01T20:56:39.533Z,11.10
2023-05-01T20:59:07.226Z,11.10
2023-05-01T21:01:34.952Z,11.10
2023-05-01T21:04:03.894Z,11.10
2023-05-01T21:06:33.286Z,11.00
2023-05-01T21:09:01.823Z,11.10
2023-05-01T21:11:29.742Z,11.10
2023-05-01T21:13:58.403Z,10.90
2023-05-01T21:16:28.314Z,11.00
2023-05-01T21:18:56.249Z,10.90
2023-05-01T21:21:26.457Z,11.10
2023-05-01T21:23:54.178Z,11.10
2023-05-01T21:26:21.940Z,11.00
2023-05-01T21:28:49.919Z,10.90
2023-05-01T21:31:17.754Z,10.80
2023-05-01T21:33:46.176Z,10.80
2023-05-01T21:36:17.475Z,10.80
2023-05-01T21:38:46.387Z,10.70
2023-05-01T21:41:15.754Z,10.70
2023-05-01T21:43:44.007Z,10.70
2023-05-01T21:46:17.779Z,10.50
2023-05-01T21:48:51.761Z,10.50
2023-05-01T21:51:20.070Z,10.60
2023-05-01T21:53:47.660Z,10.60
2023-05-01T21:56:15.583Z,10.60
2023-05-01T21:58:43.280Z,10.50
2023-05-01T22:01:13.703Z,10.50
2023-05-01T22:03:42.672Z,10.50
2023-05-01T22:06:10.766Z,10.30
2023-05-01T22:08:38.767Z,10.30
2023-05-01T22:11:08.322Z,10.50
2023-05-01T22:13:36.591Z,10.50
2023-05-01T22:16:04.573Z,10.30
2023-05-01T22:18:32.311Z,10.40
2023-05-01T22:21:01.794Z,10.30
2023-05-01T22:23:29.522Z,10.50
2023-05-01T22:26:00.316Z,10.60
2023-05-01T22:28:28.739Z,10.40
2023-05-01T22:30:56.687Z,10.50
2023-05-01T22:33:24.606Z,10.60
2023-05-01T22:35:52.164Z,10.60
2023-05-01T22:38:19.937Z,10.50
2023-05-01T22:40:47.915Z,10.50
2023-05-01T22:43:15.647Z,10.50
2023-05-01T22:45:43.506Z,10.50
2023-05-01T22:48:11.446Z,10.50
2023-05-01T22:50:39.662Z,10.40
2023-05-01T22:53:07.702Z,10.20
2023-05-01T22:55:35.474Z,10.20
2023-05-01T22:58:03.147Z,10.30
2023-05-01T23:00:31.155Z,10.20
2023-05-01T23:03:00.553Z,10.20
2023-05-01T23:05:28.612Z,10.30
2023-05-01T23:07:56.539Z,10.10
2023-05-01T23:10:27.895Z,10.10
2023-05-01T23:12:55.634Z,10.30
2023-05-01T23:15:25.719Z,10.30
2023-05-01T23:17:53.519Z,10.30
2023-05-01T23:20:25.057Z,10.30
2023-05-01T23:22:53.442Z,10.10
2023-05-01T23:25:26.267Z,10.20
2023-05-01T23:27:55.700Z,10.30
2023-05-01T23:30:23.755Z,10.20
2023-05-01T23:32:52.044Z,10.00
2023-05-01T23:35:25.001Z,10.00
2023-05-01T23:37:53.853Z,10.10
2023-05-01T23:40:21.829Z,10.20
2023-05-01T23:42:49.822Z,10.10
2023-05-01T23:45:17.576Z,10.00
2023-05-01T23:47:45.277Z,10.10
2023-05-01T23:50:13.295Z,10.20
2023-05-01T23:52:41.237Z,10.10
2023-05-01T23:55:09.058Z,10.00
2023-05-01T23:57:36.822Z,10.00
